sensor_id;sensor_type;location;lat;lon;timestamp;pressure;altitude;pressure_sealevel;temperature
29701;BMP280;57917;51.380;-0.176;2023-02-28T00:02:32;102909.88;;;4.65
29701;BMP280;57917;51.380;-0.176;2023-02-28T00:08:21;102912.34;;;4.67
29701;BMP280;57917;51.380;-0.176;2023-02-28T00:14:08;102911.06;;;4.63
29701;BMP280;57917;51.380;-0.176;2023-02-28T00:19:57;102912.69;;;4.64
29701;BMP280;57917;51.380;-0.176;2023-02-28T00:25:56;102926.28;;;4.44
29701;BMP280;57917;51.380;-0.176;2023-02-28T00:31:43;102919.41;;;4.66
29701;BMP280;57917;51.380;-0.176;2023-02-28T00:37:30;102917.84;;;4.72
29701;BMP280;57917;51.380;-0.176;2023-02-28T00:43:17;102918.31;;;4.53
29701;BMP280;57917;51.380;-0.176;2023-02-28T00:49:04;102914.28;;;4.50
29701;BMP280;57917;51.380;-0.176;2023-02-28T00:54:51;102919.47;;;4.35
29701;BMP280;57917;51.380;-0.176;2023-02-28T01:00:38;102927.25;;;4.21
29701;BMP280;57917;51.380;-0.176;2023-02-28T01:06:24;102930.34;;;3.94
29701;BMP280;57917;51.380;-0.176;2023-02-28T01:12:11;102937.81;;;4.05
29701;BMP280;57917;51.380;-0.176;2023-02-28T01:17:58;102941.13;;;3.99
29701;BMP280;57917;51.380;-0.176;2023-02-28T01:23:45;102947.97;;;4.08
29701;BMP280;57917;51.380;-0.176;2023-02-28T01:29:33;102952.78;;;4.27
29701;BMP280;57917;51.380;-0.176;2023-02-28T01:35:19;102941.53;;;4.18
29701;BMP280;57917;51.380;-0.176;2023-02-28T01:41:07;102938.03;;;4.26
29701;BMP280;57917;51.380;-0.176;2023-02-28T01:46:54;102934.22;;;4.06
29701;BMP280;57917;51.380;-0.176;2023-02-28T01:52:41;102941.25;;;4.05
29701;BMP280;57917;51.380;-0.176;2023-02-28T01:58:32;102925.88;;;4.10
29701;BMP280;57917;51.380;-0.176;2023-02-28T02:04:19;102935.63;;;3.86
29701;BMP280;57917;51.380;-0.176;2023-02-28T02:40:57;102958.63;;;3.60
29701;BMP280;57917;51.380;-0.176;2023-02-28T02:46:45;102939.84;;;3.56
29701;BMP280;57917;51.380;-0.176;2023-02-28T02:52:38;102944.94;;;3.25
29701;BMP280;57917;51.380;-0.176;2023-02-28T02:58:35;102946.59;;;3.34
29701;BMP280;57917;51.380;-0.176;2023-02-28T03:04:33;102942.34;;;3.41
29701;BMP280;57917;51.380;-0.176;2023-02-28T03:10:30;102936.31;;;2.93
29701;BMP280;57917;51.380;-0.176;2023-02-28T03:34:22;102944.00;;;3.18
29701;BMP280;57917;51.380;-0.176;2023-02-28T03:40:14;102944.81;;;3.11
29701;BMP280;57917;51.380;-0.176;2023-02-28T03:46:07;102944.63;;;3.20
29701;BMP280;57917;51.380;-0.176;2023-02-28T03:51:56;102944.66;;;3.12
29701;BMP280;57917;51.380;-0.176;2023-02-28T03:58:01;102940.41;;;2.95
29701;BMP280;57917;51.380;-0.176;2023-02-28T04:03:49;102952.69;;;2.87
29701;BMP280;57917;51.380;-0.176;2023-02-28T04:09:36;102949.41;;;2.77
29701;BMP280;57917;51.380;-0.176;2023-02-28T04:15:23;102933.84;;;2.59
29701;BMP280;57917;51.380;-0.176;2023-02-28T04:21:11;102932.53;;;2.63
29701;BMP280;57917;51.380;-0.176;2023-02-28T04:26:58;102936.13;;;2.70
29701;BMP280;57917;51.380;-0.176;2023-02-28T04:32:46;102946.59;;;2.70
29701;BMP280;57917;51.380;-0.176;2023-02-28T04:38:34;102953.78;;;2.68
29701;BMP280;57917;51.380;-0.176;2023-02-28T04:44:22;102957.06;;;2.54
29701;BMP280;57917;51.380;-0.176;2023-02-28T04:50:09;102960.81;;;2.60
29701;BMP280;57917;51.380;-0.176;2023-02-28T04:55:57;102961.63;;;2.52
29701;BMP280;57917;51.380;-0.176;2023-02-28T05:01:48;102953.59;;;2.45
29701;BMP280;57917;51.380;-0.176;2023-02-28T05:07:38;102953.06;;;2.26
29701;BMP280;57917;51.380;-0.176;2023-02-28T05:13:25;102967.13;;;2.41
29701;BMP280;57917;51.380;-0.176;2023-02-28T05:19:11;102964.16;;;2.36
29701;BMP280;57917;51.380;-0.176;2023-02-28T05:24:59;102978.09;;;2.03
29701;BMP280;57917;51.380;-0.176;2023-02-28T05:30:46;102981.69;;;1.68
29701;BMP280;57917;51.380;-0.176;2023-02-28T05:36:33;103008.97;;;1.74
29701;BMP280;57917;51.380;-0.176;2023-02-28T05:42:23;103024.09;;;2.21
29701;BMP280;57917;51.380;-0.176;2023-02-28T05:48:10;103023.41;;;2.53
29701;BMP280;57917;51.380;-0.176;2023-02-28T05:54:01;103007.91;;;2.60
29701;BMP280;57917;51.380;-0.176;2023-02-28T05:59:48;103014.25;;;2.57
29701;BMP280;57917;51.380;-0.176;2023-02-28T06:05:35;103008.06;;;2.66
29701;BMP280;57917;51.380;-0.176;2023-02-28T06:11:22;102999.00;;;2.44
29701;BMP280;57917;51.380;-0.176;2023-02-28T06:17:14;103015.34;;;2.46
29701;BMP280;57917;51.380;-0.176;2023-02-28T06:23:01;103018.13;;;2.45
29701;BMP280;57917;51.380;-0.176;2023-02-28T06:28:49;103025.97;;;2.45
29701;BMP280;57917;51.380;-0.176;2023-02-28T06:34:36;103032.88;;;2.54
29701;BMP280;57917;51.380;-0.176;2023-02-28T06:40:23;103038.16;;;2.70
29701;BMP280;57917;51.380;-0.176;2023-02-28T06:46:13;103042.38;;;2.71
29701;BMP280;57917;51.380;-0.176;2023-02-28T06:52:00;103049.81;;;2.92
29701;BMP280;57917;51.380;-0.176;2023-02-28T06:57:47;103048.34;;;3.21
29701;BMP280;57917;51.380;-0.176;2023-02-28T07:03:37;103035.13;;;3.15
29701;BMP280;57917;51.380;-0.176;2023-02-28T07:09:25;103044.09;;;3.20
29701;BMP280;57917;51.380;-0.176;2023-02-28T07:15:16;103042.47;;;3.52
29701;BMP280;57917;51.380;-0.176;2023-02-28T07:21:06;103058.53;;;3.65
29701;BMP280;57917;51.380;-0.176;2023-02-28T07:26:54;103054.59;;;3.69
29701;BMP280;57917;51.380;-0.176;2023-02-28T07:32:41;103059.09;;;3.91
29701;BMP280;57917;51.380;-0.176;2023-02-28T07:38:36;103060.97;;;4.13
29701;BMP280;57917;51.380;-0.176;2023-02-28T07:44:30;103052.13;;;4.22
29701;BMP280;57917;51.380;-0.176;2023-02-28T07:50:20;103034.31;;;4.09
29701;BMP280;57917;51.380;-0.176;2023-02-28T07:56:08;103045.25;;;4.21
29701;BMP280;57917;51.380;-0.176;2023-02-28T08:01:57;103042.59;;;4.29
29701;BMP280;57917;51.380;-0.176;2023-02-28T08:07:44;103053.00;;;4.45
29701;BMP280;57917;51.380;-0.176;2023-02-28T08:20:17;103059.66;;;4.56
29701;BMP280;57917;51.380;-0.176;2023-02-28T08:27:06;103044.19;;;4.91
29701;BMP280;57917;51.380;-0.176;2023-02-28T08:33:28;103042.66;;;5.19
29701;BMP280;57917;51.380;-0.176;2023-02-28T08:46:49;103037.16;;;5.29
29701;BMP280;57917;51.380;-0.176;2023-02-28T08:53:46;103036.50;;;5.27
29701;BMP280;57917;51.380;-0.176;2023-02-28T08:59:38;103016.25;;;5.35
29701;BMP280;57917;51.380;-0.176;2023-02-28T09:05:27;103033.41;;;5.61
29701;BMP280;57917;51.380;-0.176;2023-02-28T09:11:16;103006.09;;;5.62
29701;BMP280;57917;51.380;-0.176;2023-02-28T09:17:05;103014.88;;;5.69
29701;BMP280;57917;51.380;-0.176;2023-02-28T09:22:52;103004.81;;;5.87
29701;BMP280;57917;51.380;-0.176;2023-02-28T09:28:38;103005.75;;;5.94
29701;BMP280;57917;51.380;-0.176;2023-02-28T09:34:26;103011.81;;;6.30
29701;BMP280;57917;51.380;-0.176;2023-02-28T09:40:14;103004.06;;;6.64
29701;BMP280;57917;51.380;-0.176;2023-02-28T09:46:37;102993.28;;;6.59
29701;BMP280;57917;51.380;-0.176;2023-02-28T09:52:30;102993.78;;;6.27
29701;BMP280;57917;51.380;-0.176;2023-02-28T09:58:42;102992.06;;;6.40
29701;BMP280;57917;51.380;-0.176;2023-02-28T10:04:47;102994.84;;;6.54
29701;BMP280;57917;51.380;-0.176;2023-02-28T10:10:44;102988.03;;;6.38
29701;BMP280;57917;51.380;-0.176;2023-02-28T10:17:15;102990.41;;;6.33
29701;BMP280;57917;51.380;-0.176;2023-02-28T10:28:57;102964.09;;;6.54
29701;BMP280;57917;51.380;-0.176;2023-02-28T10:35:55;102970.66;;;6.65
29701;BMP280;57917;51.380;-0.176;2023-02-28T10:55:15;102972.97;;;6.74
29701;BMP280;57917;51.380;-0.176;2023-02-28T11:01:39;102968.97;;;6.36
29701;BMP280;57917;51.380;-0.176;2023-02-28T11:08:05;102966.47;;;6.49
29701;BMP280;57917;51.380;-0.176;2023-02-28T11:14:04;102964.09;;;6.54
29701;BMP280;57917;51.380;-0.176;2023-02-28T11:19:58;102967.16;;;6.58
29701;BMP280;57917;51.380;-0.176;2023-02-28T11:25:53;102962.44;;;6.74
29701;BMP280;57917;51.380;-0.176;2023-02-28T11:31:43;102936.59;;;6.84
29701;BMP280;57917;51.380;-0.176;2023-02-28T11:37:31;102934.59;;;6.86
29701;BMP280;57917;51.380;-0.176;2023-02-28T11:50:21;102940.22;;;6.77
29701;BMP280;57917;51.380;-0.176;2023-02-28T11:55:45;102957.19;;;6.74
29701;BMP280;57917;51.380;-0.176;2023-02-28T12:20:13;102915.19;;;6.94
29701;BMP280;57917;51.380;-0.176;2023-02-28T12:32:16;102864.50;;;7.26
29701;BMP280;57917;51.380;-0.176;2023-02-28T12:38:10;102867.63;;;7.42
29701;BMP280;57917;51.380;-0.176;2023-02-28T12:44:20;102872.84;;;7.29
29701;BMP280;57917;51.380;-0.176;2023-02-28T12:50:16;102873.22;;;7.26
29701;BMP280;57917;51.380;-0.176;2023-02-28T13:09:33;102832.25;;;7.17
29701;BMP280;57917;51.380;-0.176;2023-02-28T13:15:40;102830.19;;;7.06
29701;BMP280;57917;51.380;-0.176;2023-02-28T13:21:42;102824.09;;;7.06
29701;BMP280;57917;51.380;-0.176;2023-02-28T13:27:39;102816.84;;;7.14
29701;BMP280;57917;51.380;-0.176;2023-02-28T13:33:38;102805.72;;;7.19
29701;BMP280;57917;51.380;-0.176;2023-02-28T13:39:51;102783.25;;;7.23
29701;BMP280;57917;51.380;-0.176;2023-02-28T13:46:04;102787.63;;;7.09
29701;BMP280;57917;51.380;-0.176;2023-02-28T13:52:07;102781.88;;;7.33
29701;BMP280;57917;51.380;-0.176;2023-02-28T14:10:28;102777.72;;;7.18
29701;BMP280;57917;51.380;-0.176;2023-02-28T14:16:27;102772.97;;;7.47
29701;BMP280;57917;51.380;-0.176;2023-02-28T14:23:03;102758.56;;;7.37
29701;BMP280;57917;51.380;-0.176;2023-02-28T14:41:34;102738.88;;;7.52
29701;BMP280;57917;51.380;-0.176;2023-02-28T14:47:45;102718.66;;;7.60
29701;BMP280;57917;51.380;-0.176;2023-02-28T14:53:36;102716.81;;;7.60
29701;BMP280;57917;51.380;-0.176;2023-02-28T14:59:34;102711.50;;;7.40
29701;BMP280;57917;51.380;-0.176;2023-02-28T15:05:36;102708.50;;;7.43
29701;BMP280;57917;51.380;-0.176;2023-02-28T15:11:50;102714.75;;;7.42
29701;BMP280;57917;51.380;-0.176;2023-02-28T15:17:46;102737.88;;;7.53
29701;BMP280;57917;51.380;-0.176;2023-02-28T15:23:57;102710.50;;;7.54
29701;BMP280;57917;51.380;-0.176;2023-02-28T15:30:28;102715.78;;;7.35
29701;BMP280;57917;51.380;-0.176;2023-02-28T15:36:18;102714.75;;;7.42
29701;BMP280;57917;51.380;-0.176;2023-02-28T15:42:57;102714.38;;;7.45
29701;BMP280;57917;51.380;-0.176;2023-02-28T15:48:53;102733.38;;;7.21
29701;BMP280;57917;51.380;-0.176;2023-02-28T15:54:42;102732.75;;;7.13
29701;BMP280;57917;51.380;-0.176;2023-02-28T16:00:31;102731.28;;;6.97
29701;BMP280;57917;51.380;-0.176;2023-02-28T16:06:37;102741.53;;;6.79
29701;BMP280;57917;51.380;-0.176;2023-02-28T16:12:45;102751.16;;;7.06
29701;BMP280;57917;51.380;-0.176;2023-02-28T16:18:32;102766.50;;;6.90
29701;BMP280;57917;51.380;-0.176;2023-02-28T16:24:19;102770.09;;;6.82
29701;BMP280;57917;51.380;-0.176;2023-02-28T16:30:07;102762.00;;;6.90
29701;BMP280;57917;51.380;-0.176;2023-02-28T16:35:55;102755.53;;;6.86
29701;BMP280;57917;51.380;-0.176;2023-02-28T16:41:48;102740.78;;;6.92
29701;BMP280;57917;51.380;-0.176;2023-02-28T16:54:26;102754.41;;;7.02
29701;BMP280;57917;51.380;-0.176;2023-02-28T17:00:36;102741.19;;;6.95
29701;BMP280;57917;51.380;-0.176;2023-02-28T17:06:40;102746.03;;;6.92
29701;BMP280;57917;51.380;-0.176;2023-02-28T17:12:42;102747.13;;;7.10
29701;BMP280;57917;51.380;-0.176;2023-02-28T17:18:50;102745.91;;;7.06
29701;BMP280;57917;51.380;-0.176;2023-02-28T17:24:40;102750.34;;;6.99
29701;BMP280;57917;51.380;-0.176;2023-02-28T17:30:28;102751.16;;;7.06
29701;BMP280;57917;51.380;-0.176;2023-02-28T17:36:22;102751.34;;;7.05
29701;BMP280;57917;51.380;-0.176;2023-02-28T17:42:09;102746.69;;;7.00
29701;BMP280;57917;51.380;-0.176;2023-02-28T17:47:56;102736.16;;;7.00
29701;BMP280;57917;51.380;-0.176;2023-02-28T17:53:43;102743.56;;;6.77
29701;BMP280;57917;51.380;-0.176;2023-02-28T17:59:30;102748.63;;;6.79
29701;BMP280;57917;51.380;-0.176;2023-02-28T18:05:19;102747.78;;;6.78
29701;BMP280;57917;51.380;-0.176;2023-02-28T18:11:06;102741.81;;;6.97
29701;BMP280;57917;51.380;-0.176;2023-02-28T18:17:04;102760.81;;;6.86
29701;BMP280;57917;51.380;-0.176;2023-02-28T18:22:51;102767.09;;;6.85
29701;BMP280;57917;51.380;-0.176;2023-02-28T18:28:38;102773.97;;;6.86
29701;BMP280;57917;51.380;-0.176;2023-02-28T18:34:28;102772.97;;;6.87
29701;BMP280;57917;51.380;-0.176;2023-02-28T18:40:16;102758.44;;;7.04
29701;BMP280;57917;51.380;-0.176;2023-02-28T18:46:09;102755.22;;;7.09
29701;BMP280;57917;51.380;-0.176;2023-02-28T18:51:58;102761.09;;;7.04
29701;BMP280;57917;51.380;-0.176;2023-02-28T18:57:48;102779.47;;;6.91
29701;BMP280;57917;51.380;-0.176;2023-02-28T19:03:35;102764.06;;;6.95
29701;BMP280;57917;51.380;-0.176;2023-02-28T19:09:22;102763.84;;;6.90
29701;BMP280;57917;51.380;-0.176;2023-02-28T19:15:10;102779.81;;;6.82
29701;BMP280;57917;51.380;-0.176;2023-02-28T19:20:57;102782.72;;;6.93
29701;BMP280;57917;51.380;-0.176;2023-02-28T19:26:45;102775.81;;;6.92
29701;BMP280;57917;51.380;-0.176;2023-02-28T19:32:32;102776.44;;;6.88
29701;BMP280;57917;51.380;-0.176;2023-02-28T19:38:19;102782.28;;;6.83
29701;BMP280;57917;51.380;-0.176;2023-02-28T19:44:08;102784.34;;;6.88
29701;BMP280;57917;51.380;-0.176;2023-02-28T19:49:58;102775.41;;;6.89
29701;BMP280;57917;51.380;-0.176;2023-02-28T19:55:57;102794.34;;;6.78
29701;BMP280;57917;51.380;-0.176;2023-02-28T20:01:49;102797.97;;;6.64
29701;BMP280;57917;51.380;-0.176;2023-02-28T20:07:36;102804.13;;;6.77
29701;BMP280;57917;51.380;-0.176;2023-02-28T20:13:23;102792.72;;;6.70
29701;BMP280;57917;51.380;-0.176;2023-02-28T20:19:17;102797.38;;;6.68
29701;BMP280;57917;51.380;-0.176;2023-02-28T20:25:23;102809.75;;;6.74
29701;BMP280;57917;51.380;-0.176;2023-02-28T20:31:21;102822.56;;;6.77
29701;BMP280;57917;51.380;-0.176;2023-02-28T20:37:19;102825.06;;;6.64
29701;BMP280;57917;51.380;-0.176;2023-02-28T20:43:36;102829.00;;;6.47
29701;BMP280;57917;51.380;-0.176;2023-02-28T20:49:23;102837.84;;;6.39
29701;BMP280;57917;51.380;-0.176;2023-02-28T20:55:16;102840.06;;;6.64
29701;BMP280;57917;51.380;-0.176;2023-02-28T21:01:16;102837.63;;;6.62
29701;BMP280;57917;51.380;-0.176;2023-02-28T21:07:03;102858.69;;;6.62
29701;BMP280;57917;51.380;-0.176;2023-02-28T21:13:11;102876.59;;;6.73
29701;BMP280;57917;51.380;-0.176;2023-02-28T21:20:08;102888.31;;;6.22
29701;BMP280;57917;51.380;-0.176;2023-02-28T21:26:11;102889.53;;;6.05
29701;BMP280;57917;51.380;-0.176;2023-02-28T21:31:58;102896.06;;;5.88
29701;BMP280;57917;51.380;-0.176;2023-02-28T21:37:47;102905.75;;;5.87
29701;BMP280;57917;51.380;-0.176;2023-02-28T21:43:36;102902.31;;;5.72
29701;BMP280;57917;51.380;-0.176;2023-02-28T21:49:23;102904.75;;;5.74
29701;BMP280;57917;51.380;-0.176;2023-02-28T21:55:13;102911.28;;;5.78
29701;BMP280;57917;51.380;-0.176;2023-02-28T22:01:08;102910.72;;;5.97
29701;BMP280;57917;51.380;-0.176;2023-02-28T22:06:55;102910.53;;;5.84
29701;BMP280;57917;51.380;-0.176;2023-02-28T22:12:46;102906.31;;;5.83
29701;BMP280;57917;51.380;-0.176;2023-02-28T22:18:35;102913.44;;;5.89
29701;BMP280;57917;51.380;-0.176;2023-02-28T22:24:22;102917.09;;;5.88
29701;BMP280;57917;51.380;-0.176;2023-02-28T22:30:10;102912.31;;;5.98
29701;BMP280;57917;51.380;-0.176;2023-02-28T22:36:04;102909.94;;;5.82
29701;BMP280;57917;51.380;-0.176;2023-02-28T22:41:53;102899.31;;;5.90
29701;BMP280;57917;51.380;-0.176;2023-02-28T22:47:41;102913.16;;;5.84
29701;BMP280;57917;51.380;-0.176;2023-02-28T22:53:34;102907.16;;;6.04
29701;BMP280;57917;51.380;-0.176;2023-02-28T22:59:21;102889.91;;;5.81
29701;BMP280;57917;51.380;-0.176;2023-02-28T23:05:12;102882.44;;;5.49
29701;BMP280;57917;51.380;-0.176;2023-02-28T23:11:02;102885.75;;;5.57
29701;BMP280;57917;51.380;-0.176;2023-02-28T23:16:56;102892.78;;;5.35
29701;BMP280;57917;51.380;-0.176;2023-02-28T23:22:43;102887.53;;;5.50
29701;BMP280;57917;51.380;-0.176;2023-02-28T23:28:32;102867.31;;;5.51
29701;BMP280;57917;51.380;-0.176;2023-02-28T23:34:22;102871.34;;;5.53
29701;BMP280;57917;51.380;-0.176;2023-02-28T23:40:14;102876.56;;;5.17
29701;BMP280;57917;51.380;-0.176;2023-02-28T23:46:02;102882.53;;;5.40
29701;BMP280;57917;51.380;-0.176;2023-02-28T23:51:50;102888.34;;;5.72
29701;BMP280;57917;51.380;-0.176;2023-02-28T23:57:40;102886.41;;;5.59
